2020/09/29 21:30 VVNB 292130Z 06004KT 5000 BR NSC 27/25 Q1005 NOSIG
2020/09/29 21:30 VVDN 292130Z 21001KT 9999 FEW015 27/24 Q1006 NOSIG
2020/09/29 21:30 VVTS 292130Z 30002KT 8000 FEW015 BKN050 25/25 Q1006 NOSIG
2020/09/29 21:30 VVPB 292130Z VRB01KT 9999 FEW015 25/24 Q1006 NOSIG

Powered by MinhViet JSC.